sensor_id;sensor_type;location;lat;lon;timestamp;P1;durP1;ratioP1;P2;durP2;ratioP2
55212;SDS011;41083;52.932;6.674;2022-08-30T00:00:31;1.38;;;0.88;;
55212;SDS011;41083;52.932;6.674;2022-08-30T00:03:16;1.13;;;0.68;;
55212;SDS011;41083;52.932;6.674;2022-08-30T00:05:42;1.85;;;0.75;;
55212;SDS011;41083;52.932;6.674;2022-08-30T00:08:08;0.88;;;0.55;;
55212;SDS011;41083;52.932;6.674;2022-08-30T00:10:34;0.90;;;0.55;;
55212;SDS011;41083;52.932;6.674;2022-08-30T00:13:01;1.55;;;0.82;;
55212;SDS011;41083;52.932;6.674;2022-08-30T00:15:27;1.30;;;0.80;;
55212;SDS011;41083;52.932;6.674;2022-08-30T00:17:54;1.40;;;0.68;;
55212;SDS011;41083;52.932;6.674;2022-08-30T00:20:21;1.98;;;0.73;;
55212;SDS011;41083;52.932;6.674;2022-08-30T00:22:49;1.13;;;0.57;;
55212;SDS011;41083;52.932;6.674;2022-08-30T00:25:15;2.17;;;0.73;;
55212;SDS011;41083;52.932;6.674;2022-08-30T00:27:41;1.63;;;0.82;;
55212;SDS011;41083;52.932;6.674;2022-08-30T00:30:08;1.90;;;0.90;;
55212;SDS011;41083;52.932;6.674;2022-08-30T00:32:35;1.63;;;0.90;;
55212;SDS011;41083;52.932;6.674;2022-08-30T00:35:01;1.23;;;0.80;;
55212;SDS011;41083;52.932;6.674;2022-08-30T00:37:27;1.60;;;0.70;;
55212;SDS011;41083;52.932;6.674;2022-08-30T00:39:53;1.85;;;0.90;;
55212;SDS011;41083;52.932;6.674;2022-08-30T00:42:19;1.38;;;0.80;;
55212;SDS011;41083;52.932;6.674;2022-08-30T00:44:46;1.85;;;0.77;;
55212;SDS011;41083;52.932;6.674;2022-08-30T00:47:14;1.17;;;0.57;;
55212;SDS011;41083;52.932;6.674;2022-08-30T00:49:41;3.00;;;1.33;;
55212;SDS011;41083;52.932;6.674;2022-08-30T00:52:09;1.95;;;0.85;;
55212;SDS011;41083;52.932;6.674;2022-08-30T00:54:36;3.88;;;0.90;;
55212;SDS011;41083;52.932;6.674;2022-08-30T00:57:05;1.67;;;0.90;;
55212;SDS011;41083;52.932;6.674;2022-08-30T00:59:31;1.85;;;1.02;;
55212;SDS011;41083;52.932;6.674;2022-08-30T01:01:58;1.20;;;0.70;;
55212;SDS011;41083;52.932;6.674;2022-08-30T01:04:25;1.90;;;0.95;;
55212;SDS011;41083;52.932;6.674;2022-08-30T01:06:52;1.20;;;0.77;;
55212;SDS011;41083;52.932;6.674;2022-08-30T01:09:18;1.55;;;0.77;;
55212;SDS011;41083;52.932;6.674;2022-08-30T01:11:44;1.30;;;0.80;;
55212;SDS011;41083;52.932;6.674;2022-08-30T01:14:11;2.50;;;0.85;;
55212;SDS011;41083;52.932;6.674;2022-08-30T01:16:38;1.75;;;0.80;;
55212;SDS011;41083;52.932;6.674;2022-08-30T01:19:20;2.55;;;0.80;;
55212;SDS011;41083;52.932;6.674;2022-08-30T01:22:29;3.47;;;1.15;;
55212;SDS011;41083;52.932;6.674;2022-08-30T01:25:03;1.83;;;0.88;;
55212;SDS011;41083;52.932;6.674;2022-08-30T01:27:31;2.35;;;1.00;;
55212;SDS011;41083;52.932;6.674;2022-08-30T01:29:58;1.63;;;0.88;;
55212;SDS011;41083;52.932;6.674;2022-08-30T01:32:26;3.33;;;0.90;;
55212;SDS011;41083;52.932;6.674;2022-08-30T01:34:53;1.88;;;1.02;;
55212;SDS011;41083;52.932;6.674;2022-08-30T01:37:29;1.70;;;0.73;;
55212;SDS011;41083;52.932;6.674;2022-08-30T01:39:57;1.33;;;0.75;;
55212;SDS011;41083;52.932;6.674;2022-08-30T01:42:23;2.35;;;1.02;;
55212;SDS011;41083;52.932;6.674;2022-08-30T01:44:49;1.10;;;0.70;;
55212;SDS011;41083;52.932;6.674;2022-08-30T01:47:15;2.40;;;1.13;;
55212;SDS011;41083;52.932;6.674;2022-08-30T01:49:43;1.80;;;0.93;;
55212;SDS011;41083;52.932;6.674;2022-08-30T01:52:12;1.58;;;0.82;;
55212;SDS011;41083;52.932;6.674;2022-08-30T01:54:39;1.73;;;1.00;;
55212;SDS011;41083;52.932;6.674;2022-08-30T01:57:07;1.45;;;0.82;;
55212;SDS011;41083;52.932;6.674;2022-08-30T01:59:35;1.90;;;0.98;;
55212;SDS011;41083;52.932;6.674;2022-08-30T02:02:03;1.52;;;0.80;;
55212;SDS011;41083;52.932;6.674;2022-08-30T02:04:29;1.77;;;0.80;;
55212;SDS011;41083;52.932;6.674;2022-08-30T02:06:55;2.72;;;1.23;;
55212;SDS011;41083;52.932;6.674;2022-08-30T02:09:20;1.02;;;0.60;;
55212;SDS011;41083;52.932;6.674;2022-08-30T02:11:46;1.45;;;0.80;;
55212;SDS011;41083;52.932;6.674;2022-08-30T02:14:12;1.45;;;0.75;;
55212;SDS011;41083;52.932;6.674;2022-08-30T02:16:39;1.95;;;0.90;;
55212;SDS011;41083;52.932;6.674;2022-08-30T02:19:05;2.20;;;1.10;;
55212;SDS011;41083;52.932;6.674;2022-08-30T02:21:32;1.60;;;0.82;;
55212;SDS011;41083;52.932;6.674;2022-08-30T02:23:57;1.55;;;0.93;;
55212;SDS011;41083;52.932;6.674;2022-08-30T02:26:23;4.72;;;1.00;;
55212;SDS011;41083;52.932;6.674;2022-08-30T02:28:50;1.45;;;0.88;;
55212;SDS011;41083;52.932;6.674;2022-08-30T02:31:17;2.13;;;1.02;;
55212;SDS011;41083;52.932;6.674;2022-08-30T02:33:43;1.90;;;1.08;;
55212;SDS011;41083;52.932;6.674;2022-08-30T02:36:09;4.63;;;1.00;;
55212;SDS011;41083;52.932;6.674;2022-08-30T02:38:34;1.73;;;1.13;;
55212;SDS011;41083;52.932;6.674;2022-08-30T02:41:01;2.30;;;0.90;;
55212;SDS011;41083;52.932;6.674;2022-08-30T02:43:27;2.03;;;0.82;;
55212;SDS011;41083;52.932;6.674;2022-08-30T02:45:52;1.33;;;0.77;;
55212;SDS011;41083;52.932;6.674;2022-08-30T02:48:18;2.25;;;1.13;;
55212;SDS011;41083;52.932;6.674;2022-08-30T02:50:46;1.55;;;0.80;;
55212;SDS011;41083;52.932;6.674;2022-08-30T02:53:14;2.05;;;1.00;;
55212;SDS011;41083;52.932;6.674;2022-08-30T02:55:40;2.22;;;1.05;;
55212;SDS011;41083;52.932;6.674;2022-08-30T02:58:05;1.75;;;0.80;;
55212;SDS011;41083;52.932;6.674;2022-08-30T03:00:32;2.65;;;1.23;;
55212;SDS011;41083;52.932;6.674;2022-08-30T03:02:58;2.35;;;0.93;;
55212;SDS011;41083;52.932;6.674;2022-08-30T03:05:24;1.55;;;0.88;;
55212;SDS011;41083;52.932;6.674;2022-08-30T03:07:50;1.77;;;0.85;;
55212;SDS011;41083;52.932;6.674;2022-08-30T03:10:16;1.75;;;0.77;;
55212;SDS011;41083;52.932;6.674;2022-08-30T03:12:41;2.08;;;0.90;;
55212;SDS011;41083;52.932;6.674;2022-08-30T03:15:08;2.13;;;1.05;;
55212;SDS011;41083;52.932;6.674;2022-08-30T03:17:37;2.45;;;1.00;;
55212;SDS011;41083;52.932;6.674;2022-08-30T03:20:04;1.73;;;1.10;;
55212;SDS011;41083;52.932;6.674;2022-08-30T03:22:30;1.27;;;0.70;;
55212;SDS011;41083;52.932;6.674;2022-08-30T03:24:56;0.95;;;0.65;;
55212;SDS011;41083;52.932;6.674;2022-08-30T03:27:23;2.15;;;0.93;;
55212;SDS011;41083;52.932;6.674;2022-08-30T03:29:49;2.47;;;0.80;;
55212;SDS011;41083;52.932;6.674;2022-08-30T03:32:15;1.77;;;0.95;;
55212;SDS011;41083;52.932;6.674;2022-08-30T03:34:41;1.65;;;0.60;;
55212;SDS011;41083;52.932;6.674;2022-08-30T03:37:06;1.80;;;0.90;;
55212;SDS011;41083;52.932;6.674;2022-08-30T03:39:32;2.28;;;1.02;;
55212;SDS011;41083;52.932;6.674;2022-08-30T03:41:58;2.92;;;0.90;;
55212;SDS011;41083;52.932;6.674;2022-08-30T03:44:23;3.17;;;0.85;;
55212;SDS011;41083;52.932;6.674;2022-08-30T03:46:49;1.85;;;1.17;;
55212;SDS011;41083;52.932;6.674;2022-08-30T03:49:15;3.67;;;1.10;;
55212;SDS011;41083;52.932;6.674;2022-08-30T03:51:42;1.38;;;0.73;;
55212;SDS011;41083;52.932;6.674;2022-08-30T03:54:08;1.90;;;0.82;;
55212;SDS011;41083;52.932;6.674;2022-08-30T03:56:34;1.80;;;0.98;;
55212;SDS011;41083;52.932;6.674;2022-08-30T03:59:00;2.28;;;0.85;;
55212;SDS011;41083;52.932;6.674;2022-08-30T04:01:25;2.22;;;0.80;;
55212;SDS011;41083;52.932;6.674;2022-08-30T04:03:51;2.95;;;1.08;;
55212;SDS011;41083;52.932;6.674;2022-08-30T04:06:17;3.78;;;1.27;;
55212;SDS011;41083;52.932;6.674;2022-08-30T04:08:42;2.50;;;1.10;;
55212;SDS011;41083;52.932;6.674;2022-08-30T04:11:10;1.92;;;1.20;;
55212;SDS011;41083;52.932;6.674;2022-08-30T04:13:36;1.83;;;0.90;;
55212;SDS011;41083;52.932;6.674;2022-08-30T04:16:02;1.52;;;0.90;;
55212;SDS011;41083;52.932;6.674;2022-08-30T04:18:28;2.50;;;1.67;;
55212;SDS011;41083;52.932;6.674;2022-08-30T04:20:54;2.03;;;1.25;;
55212;SDS011;41083;52.932;6.674;2022-08-30T04:23:19;1.90;;;1.20;;
55212;SDS011;41083;52.932;6.674;2022-08-30T04:25:45;1.60;;;0.82;;
55212;SDS011;41083;52.932;6.674;2022-08-30T04:28:11;2.33;;;1.20;;
55212;SDS011;41083;52.932;6.674;2022-08-30T04:30:38;2.13;;;1.30;;
55212;SDS011;41083;52.932;6.674;2022-08-30T04:33:06;3.05;;;1.58;;
55212;SDS011;41083;52.932;6.674;2022-08-30T04:35:32;3.88;;;1.58;;
55212;SDS011;41083;52.932;6.674;2022-08-30T04:37:57;4.80;;;1.95;;
55212;SDS011;41083;52.932;6.674;2022-08-30T04:40:23;3.03;;;1.58;;
55212;SDS011;41083;52.932;6.674;2022-08-30T04:42:49;2.35;;;1.30;;
55212;SDS011;41083;52.932;6.674;2022-08-30T04:45:18;2.33;;;1.23;;
55212;SDS011;41083;52.932;6.674;2022-08-30T04:47:45;2.38;;;1.30;;
55212;SDS011;41083;52.932;6.674;2022-08-30T04:50:12;1.65;;;0.88;;
55212;SDS011;41083;52.932;6.674;2022-08-30T04:52:40;1.70;;;1.02;;
55212;SDS011;41083;52.932;6.674;2022-08-30T04:55:07;1.77;;;1.00;;
55212;SDS011;41083;52.932;6.674;2022-08-30T04:57:34;2.47;;;1.25;;
55212;SDS011;41083;52.932;6.674;2022-08-30T05:00:00;3.50;;;1.48;;
55212;SDS011;41083;52.932;6.674;2022-08-30T05:02:27;2.92;;;1.30;;
55212;SDS011;41083;52.932;6.674;2022-08-30T05:04:53;4.20;;;1.48;;
55212;SDS011;41083;52.932;6.674;2022-08-30T05:07:37;2.25;;;1.33;;
55212;SDS011;41083;52.932;6.674;2022-08-30T05:10:03;3.03;;;1.52;;
55212;SDS011;41083;52.932;6.674;2022-08-30T05:12:29;2.85;;;1.42;;
55212;SDS011;41083;52.932;6.674;2022-08-30T05:14:54;5.28;;;1.45;;
55212;SDS011;41083;52.932;6.674;2022-08-30T05:17:22;2.40;;;1.52;;
55212;SDS011;41083;52.932;6.674;2022-08-30T05:19:48;2.50;;;1.45;;
55212;SDS011;41083;52.932;6.674;2022-08-30T05:22:14;2.80;;;1.35;;
55212;SDS011;41083;52.932;6.674;2022-08-30T05:24:40;3.28;;;1.50;;
55212;SDS011;41083;52.932;6.674;2022-08-30T05:27:06;1.58;;;1.00;;
55212;SDS011;41083;52.932;6.674;2022-08-30T05:29:31;3.38;;;1.38;;
55212;SDS011;41083;52.932;6.674;2022-08-30T05:31:57;2.50;;;1.48;;
55212;SDS011;41083;52.932;6.674;2022-08-30T05:34:23;2.13;;;1.15;;
55212;SDS011;41083;52.932;6.674;2022-08-30T05:36:49;2.90;;;1.58;;
55212;SDS011;41083;52.932;6.674;2022-08-30T05:39:15;2.70;;;1.73;;
55212;SDS011;41083;52.932;6.674;2022-08-30T05:41:41;10.05;;;2.08;;
55212;SDS011;41083;52.932;6.674;2022-08-30T05:44:07;3.20;;;1.48;;
55212;SDS011;41083;52.932;6.674;2022-08-30T05:46:33;3.65;;;1.60;;
55212;SDS011;41083;52.932;6.674;2022-08-30T05:49:00;3.25;;;1.40;;
55212;SDS011;41083;52.932;6.674;2022-08-30T05:51:29;3.15;;;1.40;;
55212;SDS011;41083;52.932;6.674;2022-08-30T05:53:56;3.95;;;1.77;;
55212;SDS011;41083;52.932;6.674;2022-08-30T05:56:24;2.45;;;1.60;;
55212;SDS011;41083;52.932;6.674;2022-08-30T05:58:52;3.45;;;1.70;;
55212;SDS011;41083;52.932;6.674;2022-08-30T06:01:29;2.03;;;1.38;;
55212;SDS011;41083;52.932;6.674;2022-08-30T06:03:57;2.95;;;1.90;;
55212;SDS011;41083;52.932;6.674;2022-08-30T06:06:25;2.08;;;1.15;;
55212;SDS011;41083;52.932;6.674;2022-08-30T06:08:52;2.22;;;1.35;;
55212;SDS011;41083;52.932;6.674;2022-08-30T06:11:18;2.28;;;1.30;;
55212;SDS011;41083;52.932;6.674;2022-08-30T06:13:45;3.83;;;1.35;;
55212;SDS011;41083;52.932;6.674;2022-08-30T06:16:12;1.85;;;1.23;;
55212;SDS011;41083;52.932;6.674;2022-08-30T06:18:39;2.20;;;1.20;;
55212;SDS011;41083;52.932;6.674;2022-08-30T06:21:05;3.15;;;1.40;;
55212;SDS011;41083;52.932;6.674;2022-08-30T06:23:32;1.75;;;1.13;;
55212;SDS011;41083;52.932;6.674;2022-08-30T06:26:04;5.90;;;1.35;;
55212;SDS011;41083;52.932;6.674;2022-08-30T06:28:31;1.15;;;0.75;;
55212;SDS011;41083;52.932;6.674;2022-08-30T06:30:57;3.83;;;0.90;;
55212;SDS011;41083;52.932;6.674;2022-08-30T06:33:23;2.00;;;1.00;;
55212;SDS011;41083;52.932;6.674;2022-08-30T06:35:48;0.90;;;0.60;;
55212;SDS011;41083;52.932;6.674;2022-08-30T06:38:14;1.20;;;0.70;;
55212;SDS011;41083;52.932;6.674;2022-08-30T06:40:40;1.55;;;0.85;;
55212;SDS011;41083;52.932;6.674;2022-08-30T06:43:06;3.70;;;1.52;;
55212;SDS011;41083;52.932;6.674;2022-08-30T06:45:32;2.55;;;0.82;;
55212;SDS011;41083;52.932;6.674;2022-08-30T06:47:59;5.35;;;0.85;;
55212;SDS011;41083;52.932;6.674;2022-08-30T06:50:24;1.25;;;0.60;;
55212;SDS011;41083;52.932;6.674;2022-08-30T06:52:50;1.55;;;0.90;;
55212;SDS011;41083;52.932;6.674;2022-08-30T06:55:16;2.85;;;0.90;;
55212;SDS011;41083;52.932;6.674;2022-08-30T06:57:42;1.75;;;0.80;;
55212;SDS011;41083;52.932;6.674;2022-08-30T07:00:10;1.58;;;0.77;;
55212;SDS011;41083;52.932;6.674;2022-08-30T07:02:38;1.63;;;0.70;;
55212;SDS011;41083;52.932;6.674;2022-08-30T07:05:04;1.35;;;0.80;;
55212;SDS011;41083;52.932;6.674;2022-08-30T07:07:32;1.08;;;0.60;;
55212;SDS011;41083;52.932;6.674;2022-08-30T07:09:58;1.00;;;0.65;;
55212;SDS011;41083;52.932;6.674;2022-08-30T07:12:27;0.55;;;0.40;;
55212;SDS011;41083;52.932;6.674;2022-08-30T07:14:52;1.80;;;0.75;;
55212;SDS011;41083;52.932;6.674;2022-08-30T07:17:18;0.93;;;0.60;;
55212;SDS011;41083;52.932;6.674;2022-08-30T07:20:03;2.08;;;0.75;;
55212;SDS011;41083;52.932;6.674;2022-08-30T07:22:29;0.93;;;0.55;;
55212;SDS011;41083;52.932;6.674;2022-08-30T07:24:56;1.60;;;0.60;;
55212;SDS011;41083;52.932;6.674;2022-08-30T07:27:21;1.58;;;0.52;;
55212;SDS011;41083;52.932;6.674;2022-08-30T07:29:47;0.93;;;0.43;;
55212;SDS011;41083;52.932;6.674;2022-08-30T07:32:13;0.80;;;0.55;;
55212;SDS011;41083;52.932;6.674;2022-08-30T07:34:39;1.25;;;0.52;;
55212;SDS011;41083;52.932;6.674;2022-08-30T07:37:05;0.98;;;0.38;;
55212;SDS011;41083;52.932;6.674;2022-08-30T07:39:31;2.05;;;0.80;;
55212;SDS011;41083;52.932;6.674;2022-08-30T07:41:56;1.63;;;0.57;;
55212;SDS011;41083;52.932;6.674;2022-08-30T07:44:22;1.30;;;0.52;;
55212;SDS011;41083;52.932;6.674;2022-08-30T07:46:48;0.38;;;0.30;;
55212;SDS011;41083;52.932;6.674;2022-08-30T07:49:13;1.02;;;0.38;;
55212;SDS011;41083;52.932;6.674;2022-08-30T07:51:39;1.30;;;0.63;;
55212;SDS011;41083;52.932;6.674;2022-08-30T07:54:05;0.68;;;0.32;;
55212;SDS011;41083;52.932;6.674;2022-08-30T07:56:31;0.55;;;0.30;;
55212;SDS011;41083;52.932;6.674;2022-08-30T07:58:57;1.40;;;0.60;;
55212;SDS011;41083;52.932;6.674;2022-08-30T08:01:23;1.05;;;0.57;;
55212;SDS011;41083;52.932;6.674;2022-08-30T08:03:48;0.95;;;0.30;;
55212;SDS011;41083;52.932;6.674;2022-08-30T08:06:15;1.23;;;0.60;;
55212;SDS011;41083;52.932;6.674;2022-08-30T08:08:41;1.15;;;0.50;;
55212;SDS011;41083;52.932;6.674;2022-08-30T08:11:10;1.20;;;0.43;;
55212;SDS011;41083;52.932;6.674;2022-08-30T08:13:41;1.30;;;0.45;;
55212;SDS011;41083;52.932;6.674;2022-08-30T08:16:08;1.40;;;0.68;;
55212;SDS011;41083;52.932;6.674;2022-08-30T08:18:33;0.65;;;0.47;;
55212;SDS011;41083;52.932;6.674;2022-08-30T08:20:59;3.42;;;0.38;;
55212;SDS011;41083;52.932;6.674;2022-08-30T08:23:25;1.27;;;0.40;;
55212;SDS011;41083;52.932;6.674;2022-08-30T08:25:51;0.63;;;0.32;;
55212;SDS011;41083;52.932;6.674;2022-08-30T08:28:17;1.27;;;0.55;;
55212;SDS011;41083;52.932;6.674;2022-08-30T08:30:43;0.68;;;0.43;;
55212;SDS011;41083;52.932;6.674;2022-08-30T08:33:09;1.05;;;0.40;;
55212;SDS011;41083;52.932;6.674;2022-08-30T08:35:37;1.98;;;0.43;;
55212;SDS011;41083;52.932;6.674;2022-08-30T08:38:03;1.38;;;0.45;;
55212;SDS011;41083;52.932;6.674;2022-08-30T08:40:29;3.33;;;0.43;;
55212;SDS011;41083;52.932;6.674;2022-08-30T08:43:07;1.08;;;0.60;;
55212;SDS011;41083;52.932;6.674;2022-08-30T08:45:50;0.90;;;0.35;;
55212;SDS011;41083;52.932;6.674;2022-08-30T08:48:30;0.77;;;0.40;;
55212;SDS011;41083;52.932;6.674;2022-08-30T08:51:03;1.15;;;0.43;;
55212;SDS011;41083;52.932;6.674;2022-08-30T08:56:46;0.90;;;0.28;;
55212;SDS011;41083;52.932;6.674;2022-08-30T08:59:12;1.70;;;0.50;;
55212;SDS011;41083;52.932;6.674;2022-08-30T09:01:39;0.55;;;0.22;;
55212;SDS011;41083;52.932;6.674;2022-08-30T09:04:08;0.60;;;0.25;;
55212;SDS011;41083;52.932;6.674;2022-08-30T09:06:53;1.90;;;0.52;;
55212;SDS011;41083;52.932;6.674;2022-08-30T09:09:32;0.70;;;0.38;;
55212;SDS011;41083;52.932;6.674;2022-08-30T09:11:59;1.10;;;0.40;;
55212;SDS011;41083;52.932;6.674;2022-08-30T09:14:26;2.10;;;0.43;;
55212;SDS011;41083;52.932;6.674;2022-08-30T09:16:57;0.70;;;0.20;;
55212;SDS011;41083;52.932;6.674;2022-08-30T09:19:26;0.73;;;0.43;;
55212;SDS011;41083;52.932;6.674;2022-08-30T09:21:56;1.88;;;0.25;;
55212;SDS011;41083;52.932;6.674;2022-08-30T09:24:34;0.50;;;0.20;;
55212;SDS011;41083;52.932;6.674;2022-08-30T09:27:12;0.52;;;0.28;;
55212;SDS011;41083;52.932;6.674;2022-08-30T09:29:48;0.52;;;0.30;;
55212;SDS011;41083;52.932;6.674;2022-08-30T09:32:27;0.70;;;0.40;;
55212;SDS011;41083;52.932;6.674;2022-08-30T09:34:54;0.32;;;0.13;;
55212;SDS011;41083;52.932;6.674;2022-08-30T09:37:22;0.98;;;0.30;;
55212;SDS011;41083;52.932;6.674;2022-08-30T09:39:51;0.57;;;0.20;;
55212;SDS011;41083;52.932;6.674;2022-08-30T09:44:51;0.90;;;0.30;;
55212;SDS011;41083;52.932;6.674;2022-08-30T09:47:19;0.70;;;0.40;;
55212;SDS011;41083;52.932;6.674;2022-08-30T09:50:02;0.80;;;0.65;;
55212;SDS011;41083;52.932;6.674;2022-08-30T09:55:35;1.75;;;0.22;;
55212;SDS011;41083;52.932;6.674;2022-08-30T10:00:41;1.08;;;0.30;;
55212;SDS011;41083;52.932;6.674;2022-08-30T10:19:30;0.57;;;0.32;;
55212;SDS011;41083;52.932;6.674;2022-08-30T10:22:08;0.80;;;0.33;;
55212;SDS011;41083;52.932;6.674;2022-08-30T10:27:25;0.40;;;0.20;;
55212;SDS011;41083;52.932;6.674;2022-08-30T10:30:00;0.30;;;0.20;;
55212;SDS011;41083;52.932;6.674;2022-08-30T10:35:26;0.65;;;0.20;;
55212;SDS011;41083;52.932;6.674;2022-08-30T10:38:02;1.40;;;0.35;;
55212;SDS011;41083;52.932;6.674;2022-08-30T10:40:43;1.23;;;0.30;;
55212;SDS011;41083;52.932;6.674;2022-08-30T10:43:32;1.05;;;0.30;;
55212;SDS011;41083;52.932;6.674;2022-08-30T10:46:04;1.75;;;0.52;;
55212;SDS011;41083;52.932;6.674;2022-08-30T10:48:36;1.02;;;0.28;;
55212;SDS011;41083;52.932;6.674;2022-08-30T10:51:13;1.25;;;0.43;;
55212;SDS011;41083;52.932;6.674;2022-08-30T10:54:07;0.82;;;0.30;;
55212;SDS011;41083;52.932;6.674;2022-08-30T10:56:38;1.02;;;0.30;;
55212;SDS011;41083;52.932;6.674;2022-08-30T10:59:06;0.75;;;0.30;;
55212;SDS011;41083;52.932;6.674;2022-08-30T11:15:31;0.38;;;0.28;;
55212;SDS011;41083;52.932;6.674;2022-08-30T11:20:50;0.85;;;0.40;;
55212;SDS011;41083;52.932;6.674;2022-08-30T11:28:59;0.80;;;0.30;;
55212;SDS011;41083;52.932;6.674;2022-08-30T11:31:31;0.45;;;0.20;;
55212;SDS011;41083;52.932;6.674;2022-08-30T11:34:01;0.70;;;0.40;;
55212;SDS011;41083;52.932;6.674;2022-08-30T11:43:53;0.45;;;0.20;;
55212;SDS011;41083;52.932;6.674;2022-08-30T11:48:55;1.30;;;0.40;;
55212;SDS011;41083;52.932;6.674;2022-08-30T12:08:10;0.55;;;0.30;;
55212;SDS011;41083;52.932;6.674;2022-08-30T12:18:45;1.02;;;0.40;;
55212;SDS011;41083;52.932;6.674;2022-08-30T12:26:16;1.15;;;0.43;;
55212;SDS011;41083;52.932;6.674;2022-08-30T12:28:42;0.45;;;0.20;;
55212;SDS011;41083;52.932;6.674;2022-08-30T12:31:12;0.50;;;0.30;;
55212;SDS011;41083;52.932;6.674;2022-08-30T12:33:41;0.47;;;0.30;;
55212;SDS011;41083;52.932;6.674;2022-08-30T12:36:13;1.27;;;0.55;;
55212;SDS011;41083;52.932;6.674;2022-08-30T12:39:03;1.20;;;0.40;;
55212;SDS011;41083;52.932;6.674;2022-08-30T12:41:30;0.55;;;0.28;;
55212;SDS011;41083;52.932;6.674;2022-08-30T12:43:55;1.05;;;0.40;;
55212;SDS011;41083;52.932;6.674;2022-08-30T12:46:23;0.28;;;0.20;;
55212;SDS011;41083;52.932;6.674;2022-08-30T12:48:49;0.50;;;0.20;;
55212;SDS011;41083;52.932;6.674;2022-08-30T12:51:25;1.92;;;0.10;;
55212;SDS011;41083;52.932;6.674;2022-08-30T12:54:11;1.17;;;0.30;;
55212;SDS011;41083;52.932;6.674;2022-08-30T12:56:46;0.32;;;0.17;;
55212;SDS011;41083;52.932;6.674;2022-08-30T12:59:39;0.90;;;0.30;;
55212;SDS011;41083;52.932;6.674;2022-08-30T13:04:46;0.22;;;0.15;;
55212;SDS011;41083;52.932;6.674;2022-08-30T13:07:23;0.85;;;0.20;;
55212;SDS011;41083;52.932;6.674;2022-08-30T13:12:30;0.75;;;0.20;;
55212;SDS011;41083;52.932;6.674;2022-08-30T13:15:13;0.43;;;0.20;;
55212;SDS011;41083;52.932;6.674;2022-08-30T13:17:44;0.20;;;0.00;;
55212;SDS011;41083;52.932;6.674;2022-08-30T13:22:36;0.75;;;0.13;;
55212;SDS011;41083;52.932;6.674;2022-08-30T13:25:04;0.25;;;0.10;;
55212;SDS011;41083;52.932;6.674;2022-08-30T13:27:31;0.85;;;0.30;;
55212;SDS011;41083;52.932;6.674;2022-08-30T13:30:05;1.10;;;0.38;;
55212;SDS011;41083;52.932;6.674;2022-08-30T13:32:35;1.05;;;0.22;;
55212;SDS011;41083;52.932;6.674;2022-08-30T13:35:05;0.32;;;0.28;;
55212;SDS011;41083;52.932;6.674;2022-08-30T13:37:32;0.52;;;0.15;;
55212;SDS011;41083;52.932;6.674;2022-08-30T13:39:58;5.00;;;0.35;;
55212;SDS011;41083;52.932;6.674;2022-08-30T13:42:24;1.08;;;0.35;;
55212;SDS011;41083;52.932;6.674;2022-08-30T13:44:49;0.88;;;0.35;;
55212;SDS011;41083;52.932;6.674;2022-08-30T13:47:15;0.60;;;0.30;;
55212;SDS011;41083;52.932;6.674;2022-08-30T13:49:42;1.08;;;0.30;;
55212;SDS011;41083;52.932;6.674;2022-08-30T13:52:09;0.95;;;0.35;;
55212;SDS011;41083;52.932;6.674;2022-08-30T13:54:38;1.23;;;0.35;;
55212;SDS011;41083;52.932;6.674;2022-08-30T13:57:04;0.40;;;0.20;;
55212;SDS011;41083;52.932;6.674;2022-08-30T13:59:29;0.30;;;0.20;;
55212;SDS011;41083;52.932;6.674;2022-08-30T14:01:57;0.50;;;0.22;;
55212;SDS011;41083;52.932;6.674;2022-08-30T14:04:24;0.17;;;0.10;;
55212;SDS011;41083;52.932;6.674;2022-08-30T14:06:50;0.77;;;0.20;;
55212;SDS011;41083;52.932;6.674;2022-08-30T14:09:15;1.33;;;0.40;;
55212;SDS011;41083;52.932;6.674;2022-08-30T14:11:41;0.63;;;0.35;;
55212;SDS011;41083;52.932;6.674;2022-08-30T14:14:07;0.65;;;0.30;;
55212;SDS011;41083;52.932;6.674;2022-08-30T14:16:33;0.22;;;0.10;;
55212;SDS011;41083;52.932;6.674;2022-08-30T14:19:00;0.52;;;0.20;;
55212;SDS011;41083;52.932;6.674;2022-08-30T14:21:26;0.50;;;0.30;;
55212;SDS011;41083;52.932;6.674;2022-08-30T14:23:53;0.93;;;0.40;;
55212;SDS011;41083;52.932;6.674;2022-08-30T14:26:23;0.70;;;0.40;;
55212;SDS011;41083;52.932;6.674;2022-08-30T14:28:52;0.55;;;0.20;;
55212;SDS011;41083;52.932;6.674;2022-08-30T14:31:18;0.63;;;0.30;;
55212;SDS011;41083;52.932;6.674;2022-08-30T14:33:44;0.10;;;0.10;;
55212;SDS011;41083;52.932;6.674;2022-08-30T14:36:09;0.40;;;0.22;;
55212;SDS011;41083;52.932;6.674;2022-08-30T14:38:36;0.73;;;0.30;;
55212;SDS011;41083;52.932;6.674;2022-08-30T14:41:03;1.08;;;0.40;;
55212;SDS011;41083;52.932;6.674;2022-08-30T14:43:29;0.43;;;0.22;;
55212;SDS011;41083;52.932;6.674;2022-08-30T14:45:56;1.42;;;0.20;;
55212;SDS011;41083;52.932;6.674;2022-08-30T14:48:23;0.30;;;0.20;;
55212;SDS011;41083;52.932;6.674;2022-08-30T14:50:48;0.68;;;0.40;;
55212;SDS011;41083;52.932;6.674;2022-08-30T14:53:14;0.20;;;0.13;;
55212;SDS011;41083;52.932;6.674;2022-08-30T14:55:40;0.50;;;0.30;;
55212;SDS011;41083;52.932;6.674;2022-08-30T14:58:05;0.68;;;0.32;;
55212;SDS011;41083;52.932;6.674;2022-08-30T15:00:34;1.20;;;0.10;;
55212;SDS011;41083;52.932;6.674;2022-08-30T15:03:00;1.13;;;0.50;;
55212;SDS011;41083;52.932;6.674;2022-08-30T15:05:25;0.55;;;0.30;;
55212;SDS011;41083;52.932;6.674;2022-08-30T15:07:51;1.02;;;0.50;;
55212;SDS011;41083;52.932;6.674;2022-08-30T15:10:17;0.88;;;0.35;;
55212;SDS011;41083;52.932;6.674;2022-08-30T15:12:45;0.45;;;0.20;;
55212;SDS011;41083;52.932;6.674;2022-08-30T15:15:13;0.82;;;0.30;;
55212;SDS011;41083;52.932;6.674;2022-08-30T15:17:40;1.13;;;0.40;;
55212;SDS011;41083;52.932;6.674;2022-08-30T15:20:07;0.65;;;0.40;;
55212;SDS011;41083;52.932;6.674;2022-08-30T15:22:34;0.45;;;0.25;;
55212;SDS011;41083;52.932;6.674;2022-08-30T15:24:59;0.82;;;0.32;;
55212;SDS011;41083;52.932;6.674;2022-08-30T15:27:26;0.70;;;0.40;;
55212;SDS011;41083;52.932;6.674;2022-08-30T15:29:52;0.22;;;0.20;;
55212;SDS011;41083;52.932;6.674;2022-08-30T15:32:18;0.52;;;0.20;;
55212;SDS011;41083;52.932;6.674;2022-08-30T15:34:43;1.83;;;0.38;;
55212;SDS011;41083;52.932;6.674;2022-08-30T15:37:09;0.45;;;0.20;;
55212;SDS011;41083;52.932;6.674;2022-08-30T15:39:34;0.70;;;0.30;;
55212;SDS011;41083;52.932;6.674;2022-08-30T15:42:00;0.63;;;0.40;;
55212;SDS011;41083;52.932;6.674;2022-08-30T15:44:26;0.52;;;0.30;;
55212;SDS011;41083;52.932;6.674;2022-08-30T15:46:55;0.50;;;0.30;;
55212;SDS011;41083;52.932;6.674;2022-08-30T15:49:22;0.57;;;0.40;;
55212;SDS011;41083;52.932;6.674;2022-08-30T15:51:48;1.30;;;0.32;;
55212;SDS011;41083;52.932;6.674;2022-08-30T15:54:16;0.40;;;0.20;;
55212;SDS011;41083;52.932;6.674;2022-08-30T15:56:43;0.63;;;0.30;;
55212;SDS011;41083;52.932;6.674;2022-08-30T15:59:09;0.65;;;0.40;;
55212;SDS011;41083;52.932;6.674;2022-08-30T16:01:36;1.52;;;0.47;;
55212;SDS011;41083;52.932;6.674;2022-08-30T16:04:02;1.65;;;0.30;;
55212;SDS011;41083;52.932;6.674;2022-08-30T16:06:30;4.32;;;0.50;;
55212;SDS011;41083;52.932;6.674;2022-08-30T16:08:58;0.60;;;0.40;;
55212;SDS011;41083;52.932;6.674;2022-08-30T16:11:25;0.52;;;0.25;;
55212;SDS011;41083;52.932;6.674;2022-08-30T16:13:51;0.75;;;0.40;;
55212;SDS011;41083;52.932;6.674;2022-08-30T16:16:20;0.80;;;0.30;;
55212;SDS011;41083;52.932;6.674;2022-08-30T16:18:47;0.90;;;0.30;;
55212;SDS011;41083;52.932;6.674;2022-08-30T16:21:18;0.20;;;0.20;;
55212;SDS011;41083;52.932;6.674;2022-08-30T16:23:45;0.55;;;0.40;;
55212;SDS011;41083;52.932;6.674;2022-08-30T16:26:11;0.88;;;0.32;;
55212;SDS011;41083;52.932;6.674;2022-08-30T16:28:38;1.20;;;0.40;;
55212;SDS011;41083;52.932;6.674;2022-08-30T16:31:06;0.40;;;0.20;;
55212;SDS011;41083;52.932;6.674;2022-08-30T16:33:33;0.77;;;0.30;;
55212;SDS011;41083;52.932;6.674;2022-08-30T16:35:59;1.13;;;0.30;;